Estación Meteorológica Peña el Pijo (Robertgarden) [ 04/25/18 02:59:05 CEST ]

Fecha Hora Presion(HPa) Temp (°C) Humedad % Rocio (°C) Viento ( m/s) Direccion Lluvia 1Hora(mm) Lluvia 24H(mm) LLuvia Total(mm)
2017-Nov-21 01:02:12 1014.000 1.5 61 -5.2         1468.01
2017-Nov-21 02:01:41 1013.500 1.2 63 -5.1         1468.01
2017-Nov-21 03:08:04 1013.300 1.1 63 -5.2         1468.01
2017-Nov-21 04:01:45 1013.300 0.9 65 -5.0         1468.01
2017-Nov-21 05:01:47 1013.000 0.1 66 -5.5         1468.01
2017-Nov-21 06:01:56 1013.200 -0.7 68 -5.9         1468.01
2017-Nov-21 07:01:46 1013.000 -0.9 70 -5.7         1468.01
2017-Nov-21 08:01:38 1012.900 -1.0 71 -5.6         1468.01
2017-Nov-21 09:01:52 1013.200 0.4 71 -4.3         1468.01
2017-Nov-21 10:01:54 1013.000 9.8 52 0.4         1468.01
2017-Nov-21 11:01:36 1013.000 15.9 36 0.7         1468.01
2017-Nov-21 12:01:47 1012.200 19.5 26 -0.7         1468.01
2017-Nov-21 13:01:47 1011.400 19.9 23 -2.0         1468.01
2017-Nov-21 14:01:54 1010.500 22.3 20 -1.7 0.8 S     1468.01
2017-Nov-21 15:01:45 1009.900 22.3 20 -1.7         1468.01
2017-Nov-21 16:01:42 1010.000 20.6 22 -2.0         1468.01
2017-Nov-21 17:01:46 1009.700 17.3 26 -3.1         1468.01
2017-Nov-21 18:01:42 1010.500 14.2 30 -3.1         1468.01
2017-Nov-21 19:01:36 1011.000 8.9 37 -5.1         1468.01
2017-Nov-21 20:01:50 1011.300 6.4 44 -5.0         1468.01
2017-Nov-21 21:01:28 1011.300 4.4 48 -5.7         1468.01
2017-Nov-21 22:01:33 1011.200 3.4 53 -5.3         1468.01
2017-Nov-21 23:01:37 1011.000 2.2 57 -5.4         1468.01

Temperatura Máxima:22°    Temperatura Mínima:-1°
Presión Máxima:1014.000 Hpa    Presión Mínima:1009.700 Hpa


Volver